createdAt,value
2022-09-28T00:02:25.648Z,62.70
2022-09-28T00:04:52.517Z,62.60
2022-09-28T00:07:19.294Z,63.20
2022-09-28T00:09:46.113Z,63.00
2022-09-28T00:12:12.903Z,63.00
2022-09-28T00:14:40.650Z,63.20
2022-09-28T00:17:08.367Z,63.30
2022-09-28T00:19:35.158Z,63.70
2022-09-28T00:22:01.882Z,63.20
2022-09-28T00:24:28.862Z,63.40
2022-09-28T00:26:57.955Z,63.30
2022-09-28T00:29:36.678Z,63.70
2022-09-28T00:32:12.358Z,63.90
2022-09-28T00:34:43.278Z,63.80
2022-09-28T00:37:10.351Z,63.60
2022-09-28T00:39:38.737Z,64.00
2022-09-28T00:42:11.832Z,64.00
2022-09-28T00:44:40.094Z,63.70
2022-09-28T00:47:15.198Z,63.90
2022-09-28T00:50:03.432Z,63.90
2022-09-28T00:52:35.916Z,63.70
2022-09-28T00:55:05.998Z,63.90
2022-09-28T00:57:33.216Z,64.30
2022-09-28T01:00:01.970Z,64.20
2022-09-28T01:02:28.871Z,64.40
2022-09-28T01:04:58.093Z,64.30
2022-09-28T01:07:25.335Z,64.40
2022-09-28T01:09:54.008Z,64.10
2022-09-28T01:12:20.765Z,64.40
2022-09-28T01:14:48.800Z,64.70
2022-09-28T01:17:37.325Z,64.70
2022-09-28T01:20:35.941Z,64.70
2022-09-28T01:23:44.174Z,64.40
2022-09-28T01:26:48.489Z,64.50
2022-09-28T01:29:29.413Z,64.80
2022-09-28T01:32:28.866Z,65.30
2022-09-28T01:35:04.242Z,65.10
2022-09-28T01:37:43.960Z,65.80
2022-09-28T01:40:14.879Z,65.80
2022-09-28T01:42:45.150Z,65.70
2022-09-28T01:45:21.851Z,65.90
2022-09-28T01:47:49.875Z,66.00
2022-09-28T01:50:21.160Z,66.10
2022-09-28T01:53:28.255Z,66.10
2022-09-28T01:56:00.025Z,65.60
2022-09-28T01:58:48.882Z,67.40
2022-09-28T02:01:23.339Z,67.30
2022-09-28T02:04:15.340Z,66.10
2022-09-28T02:06:54.156Z,67.30
2022-09-28T02:09:33.879Z,67.90
2022-09-28T02:12:09.123Z,68.10
2022-09-28T02:14:39.562Z,68.20
2022-09-28T02:17:07.132Z,68.50
2022-09-28T02:19:35.503Z,68.60
2022-09-28T02:22:16.927Z,68.70
2022-09-28T02:24:56.615Z,68.20
2022-09-28T02:27:36.443Z,68.20
2022-09-28T02:30:05.298Z,69.00
2022-09-28T02:32:35.613Z,68.90
2022-09-28T02:35:02.306Z,68.50
2022-09-28T02:37:29.196Z,68.40
2022-09-28T02:39:55.993Z,68.50
2022-09-28T02:42:34.456Z,68.70
2022-09-28T02:45:32.236Z,68.40
2022-09-28T02:48:15.645Z,68.80
2022-09-28T02:50:42.388Z,68.70
2022-09-28T02:53:35.372Z,68.70
2022-09-28T02:56:20.539Z,68.30
2022-09-28T02:59:01.530Z,68.20
2022-09-28T03:02:00.447Z,68.40
2022-09-28T03:04:54.068Z,68.70
2022-09-28T03:07:33.935Z,68.60
2022-09-28T03:10:13.772Z,68.40
2022-09-28T03:12:42.812Z,68.40
2022-09-28T03:15:21.207Z,68.50
2022-09-28T03:17:48.269Z,68.80
2022-09-28T03:20:15.426Z,68.60
2022-09-28T03:22:42.349Z,68.10
2022-09-28T03:25:09.860Z,68.30
2022-09-28T03:27:36.820Z,68.30
2022-09-28T03:30:04.798Z,68.40
2022-09-28T03:32:31.554Z,68.40
2022-09-28T03:34:58.386Z,68.40
2022-09-28T03:37:26.203Z,68.50
2022-09-28T03:39:53.106Z,68.30
2022-09-28T03:42:19.888Z,68.10
2022-09-28T03:44:46.801Z,68.00
2022-09-28T03:47:14.191Z,68.60
2022-09-28T03:49:40.974Z,68.00
2022-09-28T03:52:07.816Z,68.40
2022-09-28T03:54:34.571Z,68.10
2022-09-28T03:57:01.276Z,68.40
2022-09-28T03:59:28.039Z,68.50
2022-09-28T04:01:54.883Z,68.40
2022-09-28T04:04:21.695Z,68.40
2022-09-28T04:06:48.528Z,68.40
2022-09-28T04:09:16.623Z,68.70
2022-09-28T04:12:02.875Z,68.70
2022-09-28T04:14:30.174Z,68.70
2022-09-28T04:16:56.870Z,68.80
2022-09-28T04:19:23.765Z,68.80
2022-09-28T04:21:51.155Z,68.80
2022-09-28T04:24:18.805Z,68.80
2022-09-28T04:26:45.861Z,68.90
2022-09-28T04:29:16.244Z,69.40
2022-09-28T04:31:49.592Z,69.50
2022-09-28T04:34:21.577Z,69.30
2022-09-28T04:36:49.071Z,69.40
2022-09-28T04:39:18.261Z,69.40
2022-09-28T04:41:48.300Z,69.80
2022-09-28T04:44:15.140Z,70.00
2022-09-28T04:46:41.929Z,70.10
2022-09-28T04:49:10.566Z,70.20
2022-09-28T04:51:37.351Z,70.40
2022-09-28T04:54:04.087Z,70.40
2022-09-28T04:56:30.823Z,70.20
2022-09-28T04:58:57.999Z,69.80
2022-09-28T05:01:25.752Z,69.70
2022-09-28T05:03:52.569Z,68.90
2022-09-28T05:06:19.780Z,69.20
2022-09-28T05:08:47.156Z,69.30
2022-09-28T05:11:14.724Z,68.80
2022-09-28T05:13:43.812Z,68.60
2022-09-28T05:16:11.348Z,68.60
2022-09-28T05:18:38.418Z,68.90
2022-09-28T05:21:13.574Z,68.90
2022-09-28T05:23:41.281Z,68.60
2022-09-28T05:26:08.177Z,69.00
2022-09-28T05:28:35.545Z,69.00
2022-09-28T05:31:04.408Z,68.90
2022-09-28T05:33:32.611Z,68.90
2022-09-28T05:36:01.482Z,69.00
2022-09-28T05:38:29.929Z,69.30
2022-09-28T05:40:57.053Z,69.30
2022-09-28T05:43:23.967Z,69.30
2022-09-28T05:45:55.326Z,69.30
2022-09-28T05:48:23.068Z,69.90
2022-09-28T05:50:53.367Z,69.90
2022-09-28T05:53:20.478Z,70.00
2022-09-28T05:55:47.326Z,70.10
2022-09-28T05:58:14.130Z,70.20
2022-09-28T06:00:40.852Z,70.50
2022-09-28T06:03:11.817Z,70.40
2022-09-28T06:05:42.075Z,70.50
2022-09-28T06:08:13.038Z,70.60
2022-09-28T06:10:40.905Z,69.90
2022-09-28T06:13:08.522Z,70.30
2022-09-28T06:15:36.473Z,70.20
2022-09-28T06:18:10.403Z,70.10
2022-09-28T06:20:38.561Z,70.20
2022-09-28T06:23:05.293Z,69.80
2022-09-28T06:25:32.325Z,70.10
2022-09-28T06:28:01.408Z,70.20
2022-09-28T06:30:30.645Z,70.50
2022-09-28T06:32:59.156Z,70.60
2022-09-28T06:35:28.076Z,70.10
2022-09-28T06:37:54.891Z,70.60
2022-09-28T06:40:22.590Z,70.30
2022-09-28T06:43:06.701Z,70.70
2022-09-28T06:45:33.477Z,70.70
2022-09-28T06:48:01.322Z,70.90
2022-09-28T06:50:34.780Z,69.40
2022-09-28T06:53:02.045Z,69.30
2022-09-28T06:55:29.242Z,69.20
2022-09-28T06:58:03.230Z,70.20
2022-09-28T07:00:32.898Z,69.10
2022-09-28T07:03:01.459Z,69.90
2022-09-28T07:05:28.939Z,69.80
2022-09-28T07:07:56.871Z,68.60
2022-09-28T07:10:24.777Z,70.10
2022-09-28T07:12:52.281Z,70.10
2022-09-28T07:15:20.329Z,70.10
2022-09-28T07:18:00.396Z,70.20
2022-09-28T07:20:30.303Z,70.20
2022-09-28T07:23:14.026Z,70.20
2022-09-28T07:25:48.893Z,70.80
2022-09-28T07:28:16.420Z,71.00
2022-09-28T07:30:46.679Z,70.80
2022-09-28T07:33:16.021Z,70.90
2022-09-28T07:35:50.850Z,70.80
2022-09-28T07:38:17.777Z,70.40
2022-09-28T07:41:03.196Z,70.80
2022-09-28T07:43:30.109Z,69.40
2022-09-28T07:45:57.006Z,70.90
2022-09-28T07:48:23.965Z,69.80
2022-09-28T07:50:56.752Z,70.20
2022-09-28T07:53:25.117Z,69.90
2022-09-28T07:56:05.135Z,70.00
2022-09-28T07:58:34.748Z,69.70
2022-09-28T08:01:07.698Z,69.40
2022-09-28T08:03:35.307Z,69.30
2022-09-28T08:06:07.606Z,69.40
2022-09-28T08:08:35.751Z,69.40
2022-09-28T08:11:03.291Z,69.80
2022-09-28T08:13:31.220Z,69.60
2022-09-28T08:16:01.908Z,70.10
2022-09-28T08:18:28.653Z,70.10
2022-09-28T08:21:13.810Z,71.30
2022-09-28T08:23:40.944Z,71.00
2022-09-28T08:26:11.013Z,71.60
2022-09-28T08:28:40.200Z,71.90
2022-09-28T08:31:07.471Z,72.30
2022-09-28T08:33:35.189Z,72.80
2022-09-28T08:36:04.380Z,72.90
2022-09-28T08:38:31.793Z,72.80
2022-09-28T08:41:04.799Z,73.10
2022-09-28T08:43:40.661Z,72.90
2022-09-28T08:46:09.298Z,73.30
2022-09-28T08:48:56.171Z,74.10
2022-09-28T08:51:31.033Z,74.20
2022-09-28T08:54:06.978Z,75.30
2022-09-28T08:56:57.086Z,73.80
2022-09-28T08:59:28.822Z,75.60
2022-09-28T09:02:03.563Z,75.70
2022-09-28T09:04:33.444Z,75.70
2022-09-28T09:07:22.069Z,76.00
2022-09-28T09:10:28.666Z,76.10
2022-09-28T09:13:04.520Z,76.20
2022-09-28T09:15:52.256Z,76.80
2022-09-28T09:18:40.728Z,76.90
2022-09-28T09:21:16.498Z,77.00
2022-09-28T09:23:57.591Z,77.10
2022-09-28T09:26:41.003Z,77.10
2022-09-28T09:29:41.807Z,77.10
2022-09-28T09:32:15.244Z,77.10
2022-09-28T09:35:20.483Z,77.30
2022-09-28T09:38:24.855Z,77.00
2022-09-28T09:40:57.515Z,77.20
2022-09-28T09:44:02.741Z,77.50
2022-09-28T09:46:48.906Z,77.50
2022-09-28T09:49:24.823Z,77.50
2022-09-28T09:52:06.737Z,77.90
2022-09-28T09:54:42.637Z,78.10
2022-09-28T09:57:21.527Z,77.90
2022-09-28T09:59:49.264Z,78.00
2022-09-28T10:02:34.807Z,78.30
2022-09-28T10:05:13.874Z,77.60
2022-09-28T10:07:46.914Z,77.50
2022-09-28T10:10:35.163Z,77.70
2022-09-28T10:13:02.358Z,77.30
2022-09-28T10:15:32.112Z,78.00
2022-09-28T10:18:09.061Z,77.80
2022-09-28T10:20:39.805Z,78.10
2022-09-28T10:23:15.790Z,77.90
2022-09-28T10:25:44.631Z,77.40
2022-09-28T10:28:30.080Z,77.10
2022-09-28T10:30:56.907Z,77.20
2022-09-28T10:33:34.281Z,77.60
2022-09-28T10:36:04.683Z,77.40
2022-09-28T10:38:33.170Z,77.70
2022-09-28T10:41:11.156Z,78.00
2022-09-28T10:43:50.624Z,77.60
2022-09-28T10:46:24.260Z,77.60
2022-09-28T10:49:09.592Z,77.30
2022-09-28T10:51:53.599Z,77.20
2022-09-28T10:54:28.667Z,76.90
2022-09-28T10:56:57.315Z,75.60
2022-09-28T10:59:30.286Z,75.60
2022-09-28T11:02:02.214Z,75.30
2022-09-28T11:04:41.028Z,74.40
2022-09-28T11:07:24.256Z,73.40
2022-09-28T11:09:53.329Z,73.20
2022-09-28T11:12:23.747Z,72.70
2022-09-28T11:14:57.314Z,72.30
2022-09-28T11:17:40.467Z,73.00
2022-09-28T11:20:27.969Z,72.70
2022-09-28T11:23:00.893Z,72.40
2022-09-28T11:25:29.296Z,73.10
2022-09-28T11:27:58.899Z,73.20
2022-09-28T11:30:40.683Z,74.00
2022-09-28T11:33:20.130Z,73.70
2022-09-28T11:35:50.670Z,74.30
2022-09-28T11:38:35.910Z,74.40
2022-09-28T11:41:20.855Z,74.40
2022-09-28T11:44:33.371Z,74.30
2022-09-28T11:47:15.719Z,73.90
2022-09-28T11:49:52.366Z,74.40
2022-09-28T11:52:31.004Z,74.40
2022-09-28T11:55:15.652Z,72.90
2022-09-28T11:57:49.034Z,72.20
2022-09-28T12:00:24.323Z,72.40
2022-09-28T12:02:55.511Z,72.30
2022-09-28T12:05:37.452Z,72.30
2022-09-28T12:08:12.488Z,72.40
2022-09-28T12:10:49.506Z,72.30
2022-09-28T12:13:27.458Z,72.20
2022-09-28T12:18:56.400Z,72.50
2022-09-28T12:21:38.210Z,72.30
2022-09-28T12:24:16.493Z,73.60
2022-09-28T12:26:46.196Z,73.60
2022-09-28T12:29:28.820Z,74.50
2022-09-28T12:32:22.553Z,74.80
2022-09-28T12:34:49.433Z,74.00
2022-09-28T12:37:26.464Z,75.60
2022-09-28T12:40:03.496Z,75.10
2022-09-28T12:42:56.815Z,75.50
2022-09-28T12:46:13.441Z,74.90
2022-09-28T12:49:56.325Z,74.90
2022-09-28T12:52:02.390Z,74.60
2022-09-28T12:55:02.961Z,75.00
2022-09-28T12:57:32.776Z,75.10
2022-09-28T13:00:15.389Z,75.10
2022-09-28T13:02:48.009Z,74.80
2022-09-28T13:06:04.426Z,75.20
2022-09-28T13:08:56.180Z,74.80
2022-09-28T13:11:54.742Z,75.00
2022-09-28T13:14:40.169Z,74.90
2022-09-28T13:17:38.784Z,76.20
2022-09-28T13:20:35.905Z,75.80
2022-09-28T13:23:23.367Z,75.50
2022-09-28T13:26:14.490Z,75.90
2022-09-28T13:28:43.517Z,75.80
2022-09-28T13:31:11.301Z,75.60
2022-09-28T13:33:44.632Z,76.50
2022-09-28T13:36:26.572Z,77.80
2022-09-28T13:38:55.203Z,78.30
2022-09-28T13:41:40.430Z,78.90
2022-09-28T13:44:13.195Z,78.80
2022-09-28T13:47:01.739Z,79.00
2022-09-28T13:49:32.155Z,79.20
2022-09-28T13:52:27.818Z,79.50
2022-09-28T13:55:13.639Z,80.00
2022-09-28T13:58:01.316Z,80.00
2022-09-28T14:00:45.488Z,80.10
2022-09-28T14:03:27.506Z,80.60
2022-09-28T14:06:24.814Z,80.10
2022-09-28T14:09:39.141Z,80.30
2022-09-28T14:12:28.495Z,78.80
2022-09-28T14:14:55.450Z,78.80
2022-09-28T14:17:22.203Z,80.00
2022-09-28T14:19:56.866Z,80.30
2022-09-28T14:22:51.457Z,79.90
2022-09-28T14:25:25.561Z,79.20
2022-09-28T14:28:16.835Z,79.00
2022-09-28T14:30:43.720Z,79.30
2022-09-28T14:33:39.269Z,80.10
2022-09-28T14:36:40.043Z,79.40
2022-09-28T14:39:41.300Z,80.00
2022-09-28T14:42:11.179Z,80.10
2022-09-28T14:45:13.308Z,80.30
2022-09-28T14:47:45.071Z,79.80
2022-09-28T14:50:20.760Z,80.50
2022-09-28T14:53:09.874Z,80.30
2022-09-28T14:55:50.117Z,80.60
2022-09-28T14:58:26.748Z,80.30
2022-09-28T15:01:02.752Z,79.80
2022-09-28T15:03:32.791Z,80.10
2022-09-28T15:06:01.522Z,80.30
2022-09-28T15:08:39.079Z,80.50
2022-09-28T15:11:10.863Z,80.50
2022-09-28T15:13:40.691Z,81.00
2022-09-28T15:16:11.509Z,81.00
2022-09-28T15:18:51.878Z,80.70
2022-09-28T15:21:19.135Z,80.50
2022-09-28T15:23:46.900Z,80.00
2022-09-28T15:26:40.005Z,78.80
2022-09-28T15:29:18.484Z,78.50
2022-09-28T15:31:45.614Z,77.90
2022-09-28T15:34:51.975Z,77.50
2022-09-28T15:37:29.361Z,76.50
2022-09-28T15:39:57.496Z,76.50
2022-09-28T15:42:24.828Z,75.90
2022-09-28T15:45:22.285Z,75.30
2022-09-28T15:47:49.156Z,75.90
2022-09-28T15:50:28.274Z,75.50
2022-09-28T15:53:01.906Z,75.30
2022-09-28T15:55:32.541Z,74.40
2022-09-28T15:58:17.554Z,74.40
2022-09-28T16:00:47.226Z,74.60
